Time;durP1;ratioP1;P1;durP2;ratioP2;P2;SDS_P1;SDS_P2;PMS_P1;PMS_P2;Temp;Humidity;BMP_temperature;BMP_pressure;BME280_temperature;BME280_humidity;BME280_pressure;Samples;Min_cycle;Max_cycle;Signal;HPM_P1;HPM_P2
2022/06/16 00:00:58;;;;;;;;;;;23.20;55.60;;;;;;4988885;28;20655;-73
2022/06/16 00:03:23;;;;;;;;;;;23.10;55.40;;;;;;4989728;28;19956;-71
2022/06/16 00:05:49;;;;;;;;;;;23.10;55.30;;;;;;4991429;28;19964;-73
2022/06/16 00:08:16;;;;;;;;;;;23.10;55.50;;;;;;4986387;28;19913;-72
2022/06/16 00:11:16;;;;;;;;;;;23.10;55.60;;;;;;4984167;28;19921;-73
2022/06/16 00:13:31;;;;;;;;;;;23.20;55.60;;;;;;4985576;28;19936;-73
2022/06/16 00:15:56;;;;;;;;;;;23.20;55.40;;;;;;4984337;28;20463;-73
2022/06/16 00:18:22;;;;;;;;;;;23.20;55.40;;;;;;4984404;28;19957;-73
2022/06/16 00:20:47;;;;;;;;;;;23.10;55.40;;;;;;4985997;28;19918;-73
2022/06/16 00:23:12;;;;;;;;;;;23.10;56.00;;;;;;4987296;28;20059;-72
2022/06/16 00:25:38;;;;;;;;;;;23.10;55.40;;;;;;4985511;28;19921;-73
2022/06/16 00:28:03;;;;;;;;;;;23.10;55.30;;;;;;4984827;28;19924;-72
2022/06/16 00:30:29;;;;;;;;;;;23.20;55.50;;;;;;4985508;28;19914;-72
2022/06/16 00:32:54;;;;;;;;;;;23.10;55.40;;;;;;4985143;28;19914;-73
2022/06/16 00:35:20;;;;;;;;;;;23.10;55.50;;;;;;4985769;28;19919;-73
2022/06/16 00:37:45;;;;;;;;;;;23.10;55.50;;;;;;4985293;28;19922;-72
2022/06/16 00:40:11;;;;;;;;;;;23.10;55.40;;;;;;4986743;28;19921;-72
2022/06/16 00:42:36;;;;;;;;;;;23.10;55.50;;;;;;4986978;28;19949;-74
2022/06/16 00:45:02;;;;;;;;;;;23.10;55.40;;;;;;4988975;28;19920;-73
2022/06/16 00:47:28;;;;;;;;;;;23.10;55.40;;;;;;4987619;28;20672;-72
2022/06/16 00:49:54;;;;;;;;;;;23.10;55.40;;;;;;4985154;28;19914;-73
2022/06/16 00:52:24;;;;;;;;;;;23.10;55.50;;;;;;4983113;28;19957;-72
2022/06/16 00:54:51;;;;;;;;;;;23.10;55.40;;;;;;4983233;28;19921;-72
2022/06/16 00:57:18;;;;;;;;;;;23.10;55.40;;;;;;4985400;28;19917;-73
2022/06/16 00:59:43;;;;;;;;;;;23.10;55.40;;;;;;4984321;28;19949;-72
2022/06/16 01:02:09;;;;;;;;;;;23.10;55.40;;;;;;4982806;28;20562;-73
2022/06/16 01:04:53;;;;;;;;;;;23.10;55.50;;;;;;4982938;28;19922;-73
2022/06/16 01:07:20;;;;;;;;;;;23.10;55.50;;;;;;4984026;28;20000;-72
2022/06/16 01:09:46;;;;;;;;;;;23.10;55.40;;;;;;4984606;28;20005;-71
2022/06/16 01:15:20;;;;;;;;;;;23.10;55.40;;;;;;4983341;28;19965;-73
2022/06/16 01:18:04;;;;;;;;;;;23.10;55.40;;;;;;4982986;28;19999;-73
2022/06/16 01:20:37;;;;;;;;;;;23.10;55.40;;;;;;4983936;28;26130;-71
2022/06/16 01:23:19;;;;;;;;;;;23.10;55.50;;;;;;4984208;28;20305;-74
2022/06/16 01:25:53;;;;;;;;;;;23.10;56.10;;;;;;4982551;28;20028;-73
2022/06/16 01:28:20;;;;;;;;;;;23.10;55.40;;;;;;4982519;28;20014;-73
2022/06/16 01:30:57;;;;;;;;;;;23.10;55.50;;;;;;4982304;28;19933;-73
2022/06/16 01:33:31;;;;;;;;;;;23.10;55.50;;;;;;4984024;28;20285;-74
2022/06/16 01:35:56;;;;;;;;;;;23.10;55.50;;;;;;4982785;28;19913;-70
2022/06/16 01:38:33;;;;;;;;;;;23.10;55.50;;;;;;4983927;28;19933;-74
2022/06/16 01:41:05;;;;;;;;;;;23.00;55.40;;;;;;4982427;28;19948;-73
2022/06/16 01:43:35;;;;;;;;;;;23.00;55.50;;;;;;4956845;28;19914;-73
2022/06/16 01:46:19;;;;;;;;;;;23.10;55.50;;;;;;4983779;28;20284;-73
2022/06/16 01:48:44;;;;;;;;;;;23.00;55.40;;;;;;4983684;28;19914;-73
2022/06/16 01:51:11;;;;;;;;;;;23.00;55.40;;;;;;4982761;28;20312;-73
2022/06/16 01:53:56;;;;;;;;;;;23.10;55.60;;;;;;4983869;28;19914;-74
2022/06/16 01:56:23;;;;;;;;;;;23.10;55.60;;;;;;4983311;28;19972;-72
2022/06/16 01:58:51;;;;;;;;;;;23.00;55.50;;;;;;4982420;28;19922;-72
2022/06/16 02:01:17;;;;;;;;;;;23.10;55.60;;;;;;4970040;28;19942;-73
2022/06/16 02:03:49;;;;;;;;;;;23.00;55.60;;;;;;4971904;28;19914;-73
2022/06/16 02:06:17;;;;;;;;;;;23.00;55.40;;;;;;4982573;28;19918;-74
2022/06/16 02:08:47;;;;;;;;;;;23.00;55.50;;;;;;4982549;28;19968;-73
2022/06/16 02:11:40;;;;;;;;;;;23.00;55.60;;;;;;4982892;28;20217;-73
2022/06/16 02:14:14;;;;;;;;;;;23.00;55.60;;;;;;4977099;28;19918;-73
2022/06/16 02:16:39;;;;;;;;;;;23.00;55.60;;;;;;4982261;28;20333;-72
2022/06/16 02:19:06;;;;;;;;;;;23.00;55.60;;;;;;4984317;28;19922;-71
2022/06/16 02:21:38;;;;;;;;;;;23.00;55.60;;;;;;4986231;28;20565;-73
2022/06/16 02:24:04;;;;;;;;;;;23.00;55.60;;;;;;4975824;28;19997;-72
2022/06/16 02:26:30;;;;;;;;;;;23.00;55.60;;;;;;4986288;28;19982;-74
2022/06/16 02:28:56;;;;;;;;;;;23.00;55.70;;;;;;4985094;28;19922;-74
2022/06/16 02:31:57;;;;;;;;;;;23.00;55.60;;;;;;4986878;28;19997;-73
2022/06/16 02:34:32;;;;;;;;;;;23.00;55.70;;;;;;4964680;28;19961;-72
2022/06/16 02:37:17;;;;;;;;;;;23.00;56.30;;;;;;4984356;28;20487;-73
2022/06/16 02:39:47;;;;;;;;;;;23.00;55.60;;;;;;4985699;28;20440;-73
2022/06/16 02:42:17;;;;;;;;;;;23.00;55.60;;;;;;4985841;28;19999;-74
2022/06/16 02:44:50;;;;;;;;;;;23.00;55.60;;;;;;4987434;28;20052;-73
2022/06/16 02:47:45;;;;;;;;;;;23.00;55.70;;;;;;4986377;28;19914;-73
2022/06/16 02:50:12;;;;;;;;;;;23.00;55.70;;;;;;4986629;28;19913;-73
2022/06/16 02:52:38;;;;;;;;;;;23.00;55.70;;;;;;4986737;28;19918;-74
2022/06/16 02:55:06;;;;;;;;;;;23.00;55.60;;;;;;4988451;28;19914;-74
2022/06/16 02:57:33;;;;;;;;;;;23.00;55.60;;;;;;4989732;28;21004;-73
2022/06/16 03:00:00;;;;;;;;;;;23.00;55.70;;;;;;4986690;28;20151;-72
2022/06/16 03:02:25;;;;;;;;;;;22.90;55.60;;;;;;4985843;28;19921;-72
2022/06/16 03:04:51;;;;;;;;;;;23.00;55.70;;;;;;4986730;28;19913;-72
2022/06/16 03:07:17;;;;;;;;;;;23.00;55.70;;;;;;4985287;28;19917;-72
2022/06/16 03:09:42;;;;;;;;;;;23.00;55.70;;;;;;4986862;28;19914;-73
2022/06/16 03:12:08;;;;;;;;;;;23.00;55.70;;;;;;4986922;28;20008;-73
2022/06/16 03:14:33;;;;;;;;;;;23.00;55.70;;;;;;4986113;28;19920;-73
2022/06/16 03:16:59;;;;;;;;;;;23.00;55.60;;;;;;4987075;28;19914;-74
2022/06/16 03:19:24;;;;;;;;;;;23.00;55.80;;;;;;4987629;28;19985;-73
2022/06/16 03:21:50;;;;;;;;;;;22.90;55.60;;;;;;4988439;28;20292;-73
2022/06/16 03:24:15;;;;;;;;;;;22.90;55.70;;;;;;4990084;28;19921;-73
2022/06/16 03:26:41;;;;;;;;;;;23.00;55.70;;;;;;4987157;28;20001;-73
2022/06/16 03:29:06;;;;;;;;;;;23.00;55.70;;;;;;4986486;28;20293;-73
2022/06/16 03:31:32;;;;;;;;;;;23.00;55.70;;;;;;4987519;28;19944;-73
2022/06/16 03:33:57;;;;;;;;;;;22.90;55.70;;;;;;5000767;28;19920;-72
2022/06/16 03:36:23;;;;;;;;;;;22.90;55.80;;;;;;5006519;28;19936;-72
2022/06/16 03:38:48;;;;;;;;;;;23.00;55.80;;;;;;4995005;28;20340;-73
2022/06/16 03:41:14;;;;;;;;;;;22.90;55.70;;;;;;4987201;28;19917;-73
2022/06/16 03:43:39;;;;;;;;;;;23.00;55.80;;;;;;4988411;28;19921;-73
2022/06/16 03:46:04;;;;;;;;;;;22.90;55.60;;;;;;4988659;28;19992;-70
2022/06/16 03:48:30;;;;;;;;;;;23.00;55.60;;;;;;4989364;28;19914;-71
2022/06/16 03:50:55;;;;;;;;;;;22.90;55.40;;;;;;4988152;28;19921;-71
2022/06/16 03:53:21;;;;;;;;;;;22.90;55.30;;;;;;4986724;28;19914;-72
2022/06/16 03:55:46;;;;;;;;;;;22.90;55.30;;;;;;4986192;28;19917;-71
2022/06/16 03:58:13;;;;;;;;;;;22.90;55.10;;;;;;4982264;28;20532;-73
2022/06/16 04:00:38;;;;;;;;;;;22.90;55.00;;;;;;4984631;28;19968;-71
2022/06/16 04:05:47;;;;;;;;;;;22.80;54.90;;;;;;4990712;28;19929;-72
2022/06/16 04:08:14;;;;;;;;;;;22.80;54.80;;;;;;4996336;28;19921;-71
2022/06/16 04:10:40;;;;;;;;;;;22.80;54.70;;;;;;4985761;28;19914;-74
2022/06/16 04:13:05;;;;;;;;;;;22.90;54.90;;;;;;4985523;28;19936;-72
2022/06/16 04:15:31;;;;;;;;;;;22.80;54.80;;;;;;4985816;28;19960;-74
2022/06/16 04:17:57;;;;;;;;;;;22.80;55.00;;;;;;4986714;28;19918;-74
2022/06/16 04:20:22;;;;;;;;;;;22.80;55.00;;;;;;4984059;28;20417;-75
2022/06/16 04:22:48;;;;;;;;;;;22.80;55.00;;;;;;4986272;28;19928;-74
2022/06/16 04:25:14;;;;;;;;;;;22.80;55.10;;;;;;4988576;28;19925;-72
2022/06/16 04:27:40;;;;;;;;;;;22.70;55.00;;;;;;4987505;28;19914;-72
2022/06/16 04:30:06;;;;;;;;;;;22.70;55.00;;;;;;4986928;28;19918;-74
2022/06/16 04:32:31;;;;;;;;;;;22.70;55.10;;;;;;4986338;28;19914;-71
2022/06/16 04:34:57;;;;;;;;;;;22.70;55.50;;;;;;4988098;28;19913;-74
2022/06/16 04:37:22;;;;;;;;;;;22.70;55.50;;;;;;4987955;28;19925;-74
2022/06/16 04:39:48;;;;;;;;;;;22.70;55.40;;;;;;4988236;28;19918;-70
2022/06/16 04:42:13;;;;;;;;;;;22.70;55.30;;;;;;4985172;28;20020;-70
2022/06/16 04:44:40;;;;;;;;;;;22.70;55.20;;;;;;4984684;28;19925;-74
2022/06/16 04:47:06;;;;;;;;;;;22.70;55.30;;;;;;4986813;28;19963;-72
2022/06/16 04:49:32;;;;;;;;;;;22.70;55.30;;;;;;4984400;28;19914;-70
2022/06/16 04:51:57;;;;;;;;;;;22.70;55.40;;;;;;4984766;28;19918;-72
2022/06/16 04:54:23;;;;;;;;;;;22.70;55.60;;;;;;4986002;28;20296;-70
2022/06/16 04:56:48;;;;;;;;;;;22.70;55.70;;;;;;4984457;28;20000;-70
2022/06/16 04:59:13;;;;;;;;;;;22.70;55.70;;;;;;4987869;28;19917;-71
2022/06/16 05:01:39;;;;;;;;;;;22.70;55.90;;;;;;4985716;28;20499;-73
2022/06/16 05:04:05;;;;;;;;;;;22.70;56.10;;;;;;4986171;28;19913;-73
2022/06/16 05:06:30;;;;;;;;;;;22.80;56.30;;;;;;4988156;28;20068;-73
2022/06/16 05:08:56;;;;;;;;;;;22.80;56.30;;;;;;4988703;28;19914;-73
2022/06/16 05:11:21;;;;;;;;;;;22.70;56.10;;;;;;4985279;28;19918;-74
2022/06/16 05:13:47;;;;;;;;;;;22.80;56.30;;;;;;4985164;28;19917;-72
2022/06/16 05:16:12;;;;;;;;;;;22.80;56.20;;;;;;4984362;28;19914;-72
2022/06/16 05:18:38;;;;;;;;;;;22.80;56.20;;;;;;4984684;28;20454;-72
2022/06/16 05:21:07;;;;;;;;;;;22.80;56.10;;;;;;4984577;28;19917;-72
2022/06/16 05:23:32;;;;;;;;;;;22.80;56.20;;;;;;4984620;28;19913;-72
2022/06/16 05:25:58;;;;;;;;;;;22.70;56.00;;;;;;4984072;28;20420;-72
2022/06/16 05:28:23;;;;;;;;;;;22.80;55.90;;;;;;4984264;28;19918;-72
2022/06/16 05:30:49;;;;;;;;;;;22.70;55.70;;;;;;4983210;28;20557;-72
2022/06/16 05:33:14;;;;;;;;;;;22.70;55.50;;;;;;4983702;28;19914;-72
2022/06/16 05:35:39;;;;;;;;;;;22.70;55.40;;;;;;4982740;28;19971;-72
2022/06/16 05:38:05;;;;;;;;;;;22.60;55.20;;;;;;4984410;28;19921;-72
2022/06/16 05:40:31;;;;;;;;;;;22.60;55.20;;;;;;4984690;28;20480;-72
2022/06/16 05:42:56;;;;;;;;;;;22.60;55.10;;;;;;4985048;28;19914;-75
2022/06/16 05:45:22;;;;;;;;;;;22.70;55.10;;;;;;4985014;28;19941;-74
2022/06/16 05:47:47;;;;;;;;;;;22.60;55.00;;;;;;4986944;28;19914;-74
2022/06/16 05:50:13;;;;;;;;;;;22.60;55.10;;;;;;4990401;28;19917;-74
2022/06/16 05:52:38;;;;;;;;;;;22.60;55.10;;;;;;4987736;28;19914;-74
2022/06/16 05:55:04;;;;;;;;;;;22.70;55.10;;;;;;4989056;28;19914;-73
2022/06/16 05:57:30;;;;;;;;;;;22.60;54.90;;;;;;4990156;28;19921;-73
2022/06/16 05:59:55;;;;;;;;;;;22.60;54.90;;;;;;4989359;28;19917;-73
2022/06/16 06:02:20;;;;;;;;;;;22.60;54.90;;;;;;4991574;28;19921;-73
2022/06/16 06:04:48;;;;;;;;;;;22.60;55.00;;;;;;4989382;28;19920;-73
2022/06/16 06:07:13;;;;;;;;;;;22.70;55.00;;;;;;4988012;28;19967;-73
2022/06/16 06:18:06;;;;;;;;;;;22.60;55.00;;;;;;4985802;28;19932;-73
2022/06/16 06:20:31;;;;;;;;;;;22.60;55.10;;;;;;4986747;28;19997;-73
2022/06/16 06:22:57;;;;;;;;;;;22.60;55.10;;;;;;4986559;28;19914;-72
2022/06/16 06:25:23;;;;;;;;;;;22.60;55.10;;;;;;4987817;28;19917;-73
2022/06/16 06:27:48;;;;;;;;;;;22.60;55.10;;;;;;4986357;28;19981;-71
2022/06/16 06:30:21;;;;;;;;;;;22.60;55.00;;;;;;4988385;28;19976;-73
2022/06/16 06:32:46;;;;;;;;;;;22.60;55.10;;;;;;4982337;28;20640;-73
2022/06/16 06:35:11;;;;;;;;;;;22.60;55.60;;;;;;4968247;28;19968;-74
2022/06/16 06:37:37;;;;;;;;;;;22.60;55.60;;;;;;4986444;28;19922;-74
2022/06/16 06:40:03;;;;;;;;;;;22.60;56.20;;;;;;4987676;28;19918;-72
2022/06/16 06:42:28;;;;;;;;;;;22.60;55.30;;;;;;4987212;28;19918;-74
2022/06/16 06:44:54;;;;;;;;;;;22.60;55.00;;;;;;4988146;28;19918;-71
2022/06/16 06:47:21;;;;;;;;;;;22.60;55.00;;;;;;4987732;28;20343;-72
2022/06/16 06:49:46;;;;;;;;;;;22.60;55.10;;;;;;4988279;28;19914;-72
2022/06/16 06:52:12;;;;;;;;;;;22.60;55.10;;;;;;4988470;28;19921;-70
2022/06/16 06:54:37;;;;;;;;;;;22.60;55.10;;;;;;4988198;28;19937;-72
2022/06/16 06:57:03;;;;;;;;;;;22.60;55.10;;;;;;4990638;28;19914;-73
2022/06/16 06:59:28;;;;;;;;;;;22.50;55.00;;;;;;4987855;28;20025;-73
2022/06/16 07:01:54;;;;;;;;;;;22.60;55.00;;;;;;4987906;28;19924;-72
2022/06/16 07:04:19;;;;;;;;;;;22.60;55.00;;;;;;4992567;28;20407;-73
2022/06/16 07:06:45;;;;;;;;;;;22.60;54.90;;;;;;4994079;28;19914;-74
2022/06/16 07:09:11;;;;;;;;;;;22.50;54.40;;;;;;4986009;28;20412;-74
2022/06/16 07:11:37;;;;;;;;;;;22.50;54.30;;;;;;5001457;28;20295;-73
2022/06/16 07:14:02;;;;;;;;;;;22.50;54.90;;;;;;5007326;28;19920;-73
2022/06/16 07:16:27;;;;;;;;;;;22.50;55.20;;;;;;5002635;28;19914;-75
2022/06/16 07:18:53;;;;;;;;;;;22.60;55.10;;;;;;4986707;28;19922;-74
2022/06/16 07:21:18;;;;;;;;;;;22.50;55.00;;;;;;4986202;28;20332;-72
2022/06/16 07:26:12;;;;;;;;;;;22.60;54.90;;;;;;5035755;28;20354;-69
2022/06/16 07:28:37;;;;;;;;;;;22.50;54.60;;;;;;5021789;28;19916;-65
2022/06/16 07:31:03;;;;;;;;;;;22.50;54.60;;;;;;5043369;28;20403;-66
2022/06/16 07:33:28;;;;;;;;;;;22.50;54.60;;;;;;5031248;28;19912;-67
2022/06/16 07:35:55;;;;;;;;;;;22.50;54.80;;;;;;5052696;28;19913;-69
2022/06/16 07:38:21;;;;;;;;;;;22.50;55.00;;;;;;5044833;28;19925;-69
2022/06/16 07:40:47;;;;;;;;;;;22.50;55.00;;;;;;5045215;28;20162;-70
2022/06/16 07:43:12;;;;;;;;;;;22.50;55.10;;;;;;5045285;28;19932;-71
2022/06/16 07:45:39;;;;;;;;;;;22.50;55.30;;;;;;5027077;28;20551;-69
2022/06/16 07:48:05;;;;;;;;;;;22.50;55.40;;;;;;5031391;28;19921;-70
2022/06/16 07:50:31;;;;;;;;;;;22.50;55.40;;;;;;5025981;28;20567;-70
2022/06/16 07:52:57;;;;;;;;;;;22.50;55.40;;;;;;5035357;28;19924;-71
2022/06/16 07:55:22;;;;;;;;;;;22.50;55.40;;;;;;5027423;28;19913;-69
2022/06/16 07:57:48;;;;;;;;;;;22.60;55.40;;;;;;5041660;28;20405;-70
2022/06/16 08:00:18;;;;;;;;;;;22.60;55.30;;;;;;5044818;28;19917;-69
2022/06/16 08:02:43;;;;;;;;;;;22.60;55.20;;;;;;5043984;28;19912;-70
2022/06/16 08:05:12;;;;;;;;;;;22.60;55.20;;;;;;5044760;28;20272;-70
2022/06/16 08:07:38;;;;;;;;;;;22.60;55.20;;;;;;5044678;28;19944;-70
2022/06/16 08:10:04;;;;;;;;;;;22.60;55.20;;;;;;5044558;28;19936;-70
2022/06/16 08:12:30;;;;;;;;;;;22.60;55.20;;;;;;5027226;28;20558;-70
2022/06/16 08:14:55;;;;;;;;;;;22.50;54.90;;;;;;5046620;28;19913;-70
2022/06/16 08:17:21;;;;;;;;;;;22.60;54.50;;;;;;5046717;28;21108;-69
2022/06/16 08:19:47;;;;;;;;;;;22.50;54.90;;;;;;5046875;28;19975;-70
2022/06/16 08:22:13;;;;;;;;;;;22.50;54.70;;;;;;5048801;28;19920;-70
2022/06/16 08:24:38;;;;;;;;;;;22.50;54.70;;;;;;5045052;28;19928;-70
2022/06/16 08:27:04;;;;;;;;;;;22.50;54.60;;;;;;5044904;28;19948;-70
2022/06/16 08:29:30;;;;;;;;;;;22.50;54.50;;;;;;5046071;28;19919;-70
2022/06/16 08:31:55;;;;;;;;;;;22.50;53.10;;;;;;5045674;28;19913;-70
2022/06/16 08:34:21;;;;;;;;;;;22.50;54.40;;;;;;5046001;28;20464;-69
2022/06/16 08:36:46;;;;;;;;;;;22.50;53.60;;;;;;5044319;28;19912;-67
2022/06/16 08:39:11;;;;;;;;;;;22.40;54.00;;;;;;5044859;28;19917;-70
2022/06/16 08:41:40;;;;;;;;;;;22.40;53.70;;;;;;5043378;28;20009;-70
2022/06/16 08:44:08;;;;;;;;;;;22.40;53.80;;;;;;5026146;28;19929;-66
2022/06/16 08:46:39;;;;;;;;;;;22.50;54.00;;;;;;5024870;28;19913;-68
2022/06/16 08:49:09;;;;;;;;;;;22.50;53.70;;;;;;5036335;28;19920;-67
2022/06/16 08:51:51;;;;;;;;;;;22.50;53.60;;;;;;5043177;28;19920;-68
2022/06/16 08:54:21;;;;;;;;;;;22.50;53.90;;;;;;5041622;28;20365;-68
2022/06/16 08:56:59;;;;;;;;;;;22.40;53.70;;;;;;5040060;28;21457;-68
2022/06/16 08:59:44;;;;;;;;;;;22.40;54.00;;;;;;5044716;28;19916;-68
2022/06/16 09:02:24;;;;;;;;;;;22.50;54.00;;;;;;5042285;28;19913;-68
2022/06/16 09:04:50;;;;;;;;;;;22.40;54.00;;;;;;5043262;28;21899;-68
2022/06/16 09:07:31;;;;;;;;;;;22.40;54.10;;;;;;5044104;28;19913;-68
2022/06/16 09:10:16;;;;;;;;;;;22.40;52.90;;;;;;5042693;28;20492;-68
2022/06/16 09:12:57;;;;;;;;;;;22.40;54.00;;;;;;5042886;28;20633;-68
2022/06/16 09:15:22;;;;;;;;;;;22.50;54.10;;;;;;5022821;28;19913;-67
2022/06/16 09:17:58;;;;;;;;;;;22.40;53.50;;;;;;5024280;28;19917;-68
2022/06/16 09:20:30;;;;;;;;;;;22.40;53.70;;;;;;5042273;28;20003;-68
2022/06/16 09:23:08;;;;;;;;;;;22.40;53.80;;;;;;5034136;28;19935;-68
2022/06/16 09:25:37;;;;;;;;;;;22.40;53.70;;;;;;5013487;28;19921;-68
2022/06/16 09:28:14;;;;;;;;;;;22.50;53.70;;;;;;5022660;28;19920;-68
2022/06/16 09:30:39;;;;;;;;;;;22.40;53.70;;;;;;5022621;28;19947;-67
2022/06/16 09:33:06;;;;;;;;;;;22.40;53.40;;;;;;5022940;28;19949;-68
2022/06/16 09:35:34;;;;;;;;;;;22.40;53.80;;;;;;5042652;28;19913;-68
2022/06/16 09:38:32;;;;;;;;;;;22.40;53.70;;;;;;5026242;28;20572;-68
2022/06/16 09:41:06;;;;;;;;;;;22.40;53.80;;;;;;4954635;28;19917;-68
2022/06/16 09:43:33;;;;;;;;;;;22.40;53.90;;;;;;5022807;28;20430;-68
2022/06/16 09:46:02;;;;;;;;;;;22.40;53.50;;;;;;5043198;28;19913;-68
2022/06/16 09:48:35;;;;;;;;;;;22.30;53.90;;;;;;5043748;28;19912;-68
2022/06/16 09:51:07;;;;;;;;;;;22.40;54.00;;;;;;5024103;28;19917;-68
2022/06/16 09:53:38;;;;;;;;;;;22.40;53.60;;;;;;5041631;28;19913;-68
2022/06/16 09:56:05;;;;;;;;;;;22.40;53.80;;;;;;5041780;28;19913;-68
2022/06/16 09:58:32;;;;;;;;;;;22.40;53.80;;;;;;5027728;28;19948;-69
2022/06/16 10:00:58;;;;;;;;;;;22.50;53.80;;;;;;5041432;28;19982;-68
2022/06/16 10:03:31;;;;;;;;;;;22.50;53.60;;;;;;5042275;28;20371;-68
2022/06/16 10:06:06;;;;;;;;;;;22.40;53.60;;;;;;5042745;28;20000;-68
2022/06/16 10:08:34;;;;;;;;;;;22.40;53.90;;;;;;5043167;28;19923;-68
2022/06/16 10:11:05;;;;;;;;;;;22.50;53.80;;;;;;5041945;28;19912;-68
2022/06/16 10:13:49;;;;;;;;;;;22.50;53.70;;;;;;5042068;28;19920;-68
2022/06/16 10:16:15;;;;;;;;;;;22.50;53.70;;;;;;5042885;28;19913;-68
2022/06/16 10:18:41;;;;;;;;;;;22.50;53.80;;;;;;5041597;28;19917;-69
2022/06/16 10:21:09;;;;;;;;;;;22.50;53.70;;;;;;5041495;28;19917;-68
2022/06/16 10:23:36;;;;;;;;;;;22.50;53.80;;;;;;5042472;28;20587;-68
2022/06/16 10:26:03;;;;;;;;;;;22.50;53.80;;;;;;5044320;28;20028;-67
2022/06/16 10:28:57;;;;;;;;;;;22.50;53.80;;;;;;5043343;28;19912;-69
2022/06/16 10:31:34;;;;;;;;;;;22.50;53.80;;;;;;5025401;28;19919;-70
2022/06/16 10:34:01;;;;;;;;;;;22.50;53.90;;;;;;5025667;28;19920;-69
2022/06/16 10:36:27;;;;;;;;;;;22.50;53.90;;;;;;5043411;28;20007;-69
2022/06/16 10:39:04;;;;;;;;;;;22.50;53.90;;;;;;5040874;28;19923;-67
2022/06/16 10:41:34;;;;;;;;;;;22.50;53.80;;;;;;5046802;28;19978;-67
2022/06/16 10:44:00;;;;;;;;;;;22.50;53.90;;;;;;5045385;28;20083;-66
2022/06/16 10:46:29;;;;;;;;;;;22.50;53.90;;;;;;5045590;28;20551;-67
2022/06/16 10:48:54;;;;;;;;;;;22.40;53.70;;;;;;5045576;28;19913;-66
2022/06/16 10:51:24;;;;;;;;;;;22.40;53.50;;;;;;5046930;28;20462;-66
2022/06/16 10:54:03;;;;;;;;;;;22.50;53.50;;;;;;5045661;28;19912;-66
2022/06/16 10:56:28;;;;;;;;;;;22.40;53.10;;;;;;5045370;28;19913;-67
2022/06/16 10:58:56;;;;;;;;;;;22.50;53.60;;;;;;5045226;28;19917;-66
2022/06/16 11:01:23;;;;;;;;;;;22.40;53.60;;;;;;5046830;28;20587;-66
2022/06/16 11:03:52;;;;;;;;;;;22.40;53.30;;;;;;5045712;28;19978;-67
2022/06/16 11:06:19;;;;;;;;;;;22.50;53.50;;;;;;5047531;28;19921;-67
2022/06/16 11:08:45;;;;;;;;;;;22.50;53.40;;;;;;5045292;28;19919;-67
2022/06/16 11:11:11;;;;;;;;;;;22.50;53.60;;;;;;5045472;28;19913;-67
2022/06/16 11:13:37;;;;;;;;;;;22.50;53.70;;;;;;5046362;28;20542;-68
2022/06/16 11:16:07;;;;;;;;;;;22.50;53.80;;;;;;5044981;28;19919;-68
2022/06/16 11:18:32;;;;;;;;;;;22.50;53.70;;;;;;5044551;28;19917;-68
2022/06/16 11:20:58;;;;;;;;;;;22.50;53.80;;;;;;5044433;28;19919;-67
2022/06/16 11:23:31;;;;;;;;;;;22.60;54.10;;;;;;5044865;28;19924;-67
2022/06/16 11:25:59;;;;;;;;;;;22.50;53.80;;;;;;5044739;28;20015;-67
2022/06/16 11:28:25;;;;;;;;;;;22.50;53.90;;;;;;5045023;28;19913;-68
2022/06/16 11:31:00;;;;;;;;;;;22.50;53.90;;;;;;5045081;28;19927;-67
2022/06/16 11:36:32;;;;;;;;;;;22.50;54.00;;;;;;5046252;28;19978;-67
2022/06/16 11:39:10;;;;;;;;;;;22.40;53.90;;;;;;5044334;28;19917;-68
2022/06/16 11:41:36;;;;;;;;;;;22.40;53.60;;;;;;5045656;28;20437;-67
2022/06/16 11:44:03;;;;;;;;;;;22.40;53.70;;;;;;5044125;28;19917;-68
2022/06/16 11:46:40;;;;;;;;;;;22.40;53.90;;;;;;5044432;28;19913;-68
2022/06/16 11:49:09;;;;;;;;;;;22.50;53.90;;;;;;5045794;28;19913;-68
2022/06/16 11:51:38;;;;;;;;;;;22.50;54.00;;;;;;5044133;28;19966;-67
2022/06/16 11:54:16;;;;;;;;;;;22.40;54.10;;;;;;5044531;28;19917;-67
2022/06/16 11:56:43;;;;;;;;;;;22.40;54.20;;;;;;5045520;28;19920;-67
2022/06/16 11:59:26;;;;;;;;;;;22.40;54.30;;;;;;5045724;28;19966;-67
2022/06/16 12:02:15;;;;;;;;;;;22.50;54.40;;;;;;5044176;28;19913;-67
2022/06/16 12:04:50;;;;;;;;;;;22.40;54.30;;;;;;5039852;28;19963;-68
2022/06/16 12:07:15;;;;;;;;;;;22.50;54.20;;;;;;5045898;28;19975;-68
2022/06/16 12:09:46;;;;;;;;;;;22.40;54.10;;;;;;5045251;28;19917;-68
2022/06/16 12:12:30;;;;;;;;;;;22.40;54.40;;;;;;5043478;28;19948;-68
2022/06/16 12:15:02;;;;;;;;;;;22.50;54.40;;;;;;5045136;28;19938;-68
2022/06/16 12:17:32;;;;;;;;;;;22.50;54.10;;;;;;5045016;28;19917;-68
2022/06/16 12:20:10;;;;;;;;;;;22.40;54.00;;;;;;5043610;28;19921;-68
2022/06/16 12:22:38;;;;;;;;;;;22.50;53.80;;;;;;5044728;28;19949;-66
2022/06/16 12:25:09;;;;;;;;;;;22.50;54.10;;;;;;5043734;28;19999;-66
2022/06/16 12:27:44;;;;;;;;;;;22.50;54.00;;;;;;5044023;28;19928;-66
2022/06/16 12:30:16;;;;;;;;;;;22.50;54.20;;;;;;5045280;28;20010;-66
2022/06/16 12:33:04;;;;;;;;;;;22.50;54.00;;;;;;5042763;28;19920;-67
2022/06/16 12:35:34;;;;;;;;;;;22.50;53.90;;;;;;5042803;28;20506;-67
2022/06/16 12:38:01;;;;;;;;;;;22.50;54.00;;;;;;5045622;28;19917;-66
2022/06/16 12:40:30;;;;;;;;;;;22.50;53.80;;;;;;5044129;28;19920;-66
2022/06/16 12:42:58;;;;;;;;;;;22.50;54.00;;;;;;5043619;28;20008;-68
2022/06/16 12:45:25;;;;;;;;;;;22.50;54.10;;;;;;5044028;28;20007;-67
2022/06/16 12:47:55;;;;;;;;;;;22.50;52.90;;;;;;5046497;28;20379;-67
2022/06/16 12:50:26;;;;;;;;;;;22.60;54.10;;;;;;5044425;28;19975;-66
2022/06/16 12:52:53;;;;;;;;;;;22.60;53.90;;;;;;5043459;28;20000;-67
2022/06/16 12:55:20;;;;;;;;;;;22.60;53.80;;;;;;5043596;28;20455;-66
2022/06/16 12:57:49;;;;;;;;;;;22.60;54.30;;;;;;5025898;28;21101;-67
2022/06/16 13:00:18;;;;;;;;;;;22.60;54.30;;;;;;5043214;28;19928;-68
2022/06/16 13:02:44;;;;;;;;;;;22.70;53.90;;;;;;5044070;28;19913;-68
2022/06/16 13:05:10;;;;;;;;;;;22.60;53.70;;;;;;5043637;28;19963;-67
2022/06/16 13:07:37;;;;;;;;;;;22.60;54.00;;;;;;5044161;28;19920;-67
2022/06/16 13:10:06;;;;;;;;;;;22.70;54.00;;;;;;5043915;28;19913;-67
2022/06/16 13:12:32;;;;;;;;;;;22.60;53.20;;;;;;5045532;28;19971;-68
2022/06/16 13:15:03;;;;;;;;;;;22.70;53.20;;;;;;5046807;28;20451;-68
2022/06/16 13:17:29;;;;;;;;;;;22.60;53.40;;;;;;5045248;28;20329;-67
2022/06/16 13:19:57;;;;;;;;;;;22.70;53.60;;;;;;5026502;28;20268;-68
2022/06/16 13:22:31;;;;;;;;;;;22.70;53.60;;;;;;5042673;28;20047;-66
2022/06/16 13:24:58;;;;;;;;;;;22.70;53.40;;;;;;5042724;28;20231;-67
2022/06/16 13:27:38;;;;;;;;;;;22.60;52.00;;;;;;5042697;28;20394;-66
2022/06/16 13:30:04;;;;;;;;;;;22.60;53.10;;;;;;5043968;28;19987;-68
2022/06/16 13:32:37;;;;;;;;;;;22.70;53.30;;;;;;5042991;28;19993;-67
2022/06/16 13:35:12;;;;;;;;;;;22.70;53.70;;;;;;5043995;28;19913;-67
2022/06/16 13:37:39;;;;;;;;;;;22.70;53.60;;;;;;5043803;28;19913;-66
2022/06/16 13:40:04;;;;;;;;;;;22.70;53.60;;;;;;5044274;28;20554;-67
2022/06/16 13:43:01;;;;;;;;;;;22.60;53.30;;;;;;5041740;28;19964;-67
2022/06/16 13:45:29;;;;;;;;;;;22.70;53.60;;;;;;5040817;28;19920;-66
2022/06/16 13:48:11;;;;;;;;;;;22.70;53.30;;;;;;5032061;28;20349;-66
2022/06/16 13:50:45;;;;;;;;;;;22.70;53.30;;;;;;5041201;28;19924;-64
2022/06/16 13:53:12;;;;;;;;;;;22.70;53.10;;;;;;5034562;28;20084;-66
2022/06/16 13:55:53;;;;;;;;;;;22.70;53.10;;;;;;5023003;28;20477;-67
2022/06/16 13:58:22;;;;;;;;;;;22.70;53.20;;;;;;5040529;28;20358;-66
2022/06/16 14:01:04;;;;;;;;;;;22.70;53.40;;;;;;5042496;28;20576;-67
2022/06/16 14:03:30;;;;;;;;;;;22.70;53.40;;;;;;5041636;28;19913;-67
2022/06/16 14:06:01;;;;;;;;;;;22.70;53.20;;;;;;5042107;28;19913;-66
2022/06/16 14:08:26;;;;;;;;;;;22.70;52.50;;;;;;5028190;28;20307;-67
2022/06/16 14:10:56;;;;;;;;;;;22.70;52.90;;;;;;5030326;28;19926;-63
2022/06/16 14:13:38;;;;;;;;;;;22.80;52.90;;;;;;5032524;28;20321;-68
2022/06/16 14:16:04;;;;;;;;;;;22.80;52.50;;;;;;5036783;28;19914;-68
2022/06/16 14:18:35;;;;;;;;;;;22.70;52.60;;;;;;5024197;28;19928;-68
2022/06/16 14:21:01;;;;;;;;;;;22.70;52.10;;;;;;5057827;28;19941;-67
2022/06/16 14:23:28;;;;;;;;;;;22.70;51.30;;;;;;5036240;28;20010;-68
2022/06/16 14:25:58;;;;;;;;;;;22.80;52.50;;;;;;5022556;28;19921;-68
2022/06/16 14:28:24;;;;;;;;;;;22.80;51.70;;;;;;5021703;28;19952;-68
2022/06/16 14:30:51;;;;;;;;;;;22.80;51.50;;;;;;5046346;28;19912;-63
2022/06/16 14:33:20;;;;;;;;;;;22.80;52.30;;;;;;5032795;28;19916;-67
2022/06/16 14:35:47;;;;;;;;;;;22.70;52.10;;;;;;5032752;28;20316;-66
2022/06/16 14:38:24;;;;;;;;;;;22.80;51.00;;;;;;5035112;28;19913;-67
2022/06/16 14:40:49;;;;;;;;;;;22.70;50.10;;;;;;5013425;28;19920;-67
2022/06/16 14:43:19;;;;;;;;;;;22.80;51.00;;;;;;5016173;28;19914;-66
2022/06/16 14:45:46;;;;;;;;;;;22.80;51.30;;;;;;5025076;28;20344;-67